Home > Products > Valid Products > TAF

000
FTUS44 KSHV 220900 AAA
TAFGGG
TAF AMD
KGGG 220922Z 2209/2306 10003KT 4SM BR FEW250
     FM221300 10004KT P6SM SCT035
     FM222000 10005KT P6SM SCT045
     FM230000 10004KT P6SM SKC=



000
FTUS44 KSHV 220900 AAA
TAFLFK
TAF AMD
KLFK 220902Z 2209/2306 VRB03KT 6SM BR SCT050
      TEMPO 2209/2213 3SM BR
     FM221400 VRB03KT P6SM SCT015
     FM221600 VRB04KT P6SM SCT035
     FM222000 VRB05KT P6SM SCT045
     FM230000 VRB03KT P6SM SKC=



000
FTUS44 KSHV 220500
TAFGGG
TAF
KGGG 220526Z 2206/2306 10003KT P6SM SKC
     FM221100 VRB03KT 5SM BR SKC
     FM221300 10004KT P6SM SCT035
     FM222000 10005KT P6SM SCT045
     FM230000 10004KT P6SM SKC=



000
FTUS44 KSHV 220500
TAFELD
TAF
KELD 220526Z 2206/2306 VRB03KT P6SM SKC
      TEMPO 2206/2209 4SM BR
     FM220900 00000KT 4SM BR SKC
     FM221300 VRB03KT P6SM SCT035
     FM222000 08005KT P6SM SCT045
     FM230000 09003KT P6SM SCT050=



000
FTUS44 KSHV 220500
TAFTXK
TAF
KTXK 220526Z 2206/2306 VRB03KT P6SM SKC
      TEMPO 2210/2213 5SM BR
     FM221300 10003KT P6SM SKC
     FM221600 11005KT P6SM SCT035
     FM222000 11005KT P6SM SCT045
     FM230000 10004KT P6SM SKC=



000
FTUS44 KSHV 220500
TAFLFK
TAF
KLFK 220526Z 2206/2306 VRB03KT P6SM SCT050
      TEMPO 2206/2209 3SM BR
     FM220900 VRB03KT 3SM BR SCT015
      TEMPO 2209/2213 1SM BR BKN003
     FM221400 VRB03KT P6SM SCT015
     FM221600 VRB04KT P6SM SCT035
     FM222000 VRB05KT P6SM SCT045
     FM230000 VRB03KT P6SM SKC=



000
FTUS44 KSHV 220500
TAFSHV
TAF
KSHV 220526Z 2206/2306 VRB03KT P6SM SKC
     FM221600 09004KT P6SM SCT035
     FM222000 09006KT P6SM SCT045
     FM230000 10004KT P6SM SKC=



000
FTUS44 KSHV 220500
TAFTYR
TAF
KTYR 220526Z 2206/2306 12005KT P6SM SKC
     FM221400 11006KT P6SM SCT035
     FM222000 10006KT P6SM SCT045
     FM230000 10005KT P6SM SKC=



000
FTUS44 KSHV 220500
TAFMLU
TAF
KMLU 220526Z 2206/2306 00000KT P6SM SKC
      TEMPO 2206/2210 4SM BR
     FM221000 00000KT 4SM BR SKC
     FM221300 VRB03KT P6SM SKC
     FM221600 04005KT P6SM SCT030
     FM222000 07006KT P6SM SCT045
     FM230000 VRB03KT P6SM SCT050=



000
FTUS44 KSHV 212300
TAFELD
TAF
KELD 212321Z 2200/2224 VRB03KT P6SM SKC
     FM220900 00000KT 4SM BR SKC
     FM221300 VRB03KT P6SM SCT035
     FM222000 08005KT P6SM SCT045=



000
FTUS44 KSHV 212300
TAFSHV
TAF
KSHV 212321Z 2200/2224 VRB03KT P6SM SKC
     FM221600 08004KT P6SM SCT035
     FM222000 08005KT P6SM SCT045=



000
FTUS44 KSHV 212300
TAFGGG
TAF
KGGG 212321Z 2200/2224 VRB03KT P6SM SKC
     FM221100 VRB03KT 5SM BR SKC
     FM221300 10004KT P6SM SCT035
     FM222000 10005KT P6SM SCT045=



000
FTUS44 KSHV 212300
TAFTXK
TAF
KTXK 212321Z 2200/2224 VRB03KT P6SM SKC
      TEMPO 2210/2213 5SM BR
     FM221300 10003KT P6SM SKC
     FM221600 11004KT P6SM SCT035
     FM222000 11005KT P6SM SCT045=



000
FTUS44 KSHV 212300
TAFMLU
TAF
KMLU 212321Z 2200/2224 VRB04KT P6SM SKC
      TEMPO 2206/2209 4SM BR
     FM220900 00000KT 4SM BR SKC
     FM221300 VRB03KT P6SM SKC
     FM221600 05006KT P6SM SCT030
     FM222000 07006KT P6SM SCT045=



000
FTUS44 KSHV 212300
TAFTYR
TAF
KTYR 212321Z 2200/2224 10005KT P6SM SKC
     FM221400 11005KT P6SM SCT035
     FM222000 10005KT P6SM SCT045=



000
FTUS44 KSHV 212300
TAFLFK
TAF
KLFK 212321Z 2200/2224 VRB03KT P6SM SCT045
      TEMPO 2206/2209 3SM BR
     FM220900 VRB03KT 3SM BR SCT015
      TEMPO 2209/2213 1SM BR BKN003
     FM221400 VRB03KT P6SM SCT015
     FM221600 VRB04KT P6SM SCT035
     FM222000 VRB05KT P6SM SCT045=



000
FTUS44 KSHV 211700 RRA
TAFMLU
TAF
KMLU 211743Z 2118/2218 VRB04KT P6SM SCT035
     FM220100 VRB03KT P6SM SKC
     FM220900 VRB03KT 4SM BR SKC
     FM221300 VRB03KT P6SM SKC
     FM221600 04004KT P6SM SCT030=



000
FTUS44 KSHV 211700 RRA
TAFTXK
TAF
KTXK 211743Z 2118/2218 VRB04KT P6SM SCT030
     FM212000 VRB04KT P6SM SCT035
     FM220100 VRB03KT P6SM SKC
     FM221100 VRB03KT 5SM BR SKC
     FM221300 10003KT P6SM FEW250=



000
FTUS44 KSHV 211700 RRA
TAFSHV
TAF
KSHV 211743Z 2118/2218 VRB04KT P6SM BKN030
     FM212000 VRB05KT P6SM BKN035
     FM212200 VRB04KT P6SM SCT040
     FM220200 VRB03KT P6SM SKC
     FM221600 08004KT P6SM SCT035=



000
FTUS44 KSHV 211700 RRA
TAFTYR
TAF
KTYR 211743Z 2118/2218 11005KT P6SM SCT017 BKN025
     FM212000 10005KT P6SM SCT035
     FM220100 10004KT P6SM SKC
     FM221200 12004KT P6SM SCT040=



000
FTUS44 KSHV 211700 RRA
TAFLFK
TAF
KLFK 211743Z 2118/2218 VRB04KT P6SM BKN025
      TEMPO 2118/2120 SCT025
     FM212000 VRB04KT P6SM SCT035
     FM220100 VRB03KT P6SM SKC
     FM220500 VRB03KT P6SM SCT045
     FM220900 VRB03KT 4SM BR SCT045
     FM221300 VRB03KT P6SM SCT025=



000
FTUS44 KSHV 211700 RRA
TAFGGG
TAF
KGGG 211743Z 2118/2218 09004KT P6SM BKN020
     FM212000 09005KT P6SM SCT030
     FM220100 10003KT P6SM SKC
     FM221100 10003KT 5SM BR SKC
     FM221300 10004KT P6SM FEW040=



000
FTUS44 KSHV 211700 RRA
TAFELD
TAF
KELD 211743Z 2118/2218 VRB04KT P6SM BKN035
     FM212100 VRB04KT P6SM SCT040
     FM220100 VRB03KT P6SM SKC
     FM220900 00000KT 4SM BR SKC
     FM221300 VRB03KT P6SM SKC=



000
FTUS44 KSHV 211500 AAA
TAFMLU
TAF AMD
KMLU 211509Z 2115/2212 VRB04KT P6SM SCT020
      TEMPO 2115/2117 BKN020
     FM211700 VRB05KT P6SM SCT035
     FM220000 VRB03KT P6SM SKC=



000
FTUS44 KSHV 211500 AAA
TAFGGG
TAF AMD
KGGG 211507Z 2115/2212 13005KT P6SM BKN023
     FM211700 10005KT P6SM BKN035
     FM211900 09005KT P6SM SCT040
     FM220000 11003KT P6SM SKC=



000
FTUS44 KSHV 211500 AAA
TAFLFK
TAF AMD
KLFK 211503Z 2115/2212 VRB04KT P6SM BKN015
      TEMPO 2115/2117 SCT017
     FM211700 VRB04KT P6SM SCT025
     FM211900 VRB04KT P6SM SCT040
     FM220100 VRB03KT P6SM SKC=



000
FTUS44 KSHV 211400 AAA
TAFTYR
TAF AMD
KTYR 211459Z 2115/2212 13005KT P6SM BKN013
     FM211700 12005KT P6SM BKN025
     FM211900 11005KT P6SM SCT035
     FM220000 11004KT P6SM SKC=



000
FTUS44 KSHV 211200 AAA
TAFTXK
TAF AMD
KTXK 211257Z 2113/2212 00000KT 4SM BR SKC
     FM211400 VRB05KT P6SM SCT040
     FM220000 VRB04KT P6SM SKC=



000
FTUS44 KSHV 211200 AAA
TAFELD
TAF AMD
KELD 211257Z 2113/2212 00000KT P6SM SKC
     FM211400 VRB05KT P6SM SCT040
     FM220000 VRB03KT P6SM SKC=



000
FTUS44 KSHV 211100 CCA
TAFELD
TAF COR
KELD 211142Z 2112/2212 00000KT 6SM BR BKN002
     FM211300 VRB03KT P6SM SCT005 BKN035
     FM211600 VRB05KT P6SM SCT040
     FM220000 VRB03KT P6SM SKC=



000
FTUS44 KSHV 211100
TAFLFK
TAF
KLFK 211140Z 2112/2212 09003KT 5SM BR OVC010
     FM211500 VRB04KT P6SM SCT020
     FM211600 VRB05KT P6SM SCT035
     FM220000 VRB03KT P6SM SKC=



000
FTUS44 KSHV 211100
TAFELD
TAF
KELD 211140Z 2112/2212 00000KT 6SM BR BKN002
      TEMPO 2112/2113 3/4SM BR BKN001
     FM211300 VRB03KT P6SM BKN035
     FM211600 VRB05KT P6SM SCT040
     FM220000 VRB03KT P6SM SKC=



000
FTUS44 KSHV 211100
TAFTXK
TAF
KTXK 211140Z 2112/2212 00000KT 2SM BR FEW001
      TEMPO 2112/2113 1/2SM FG VV001
     FM211300 VRB03KT P6SM BKN035
     FM211800 VRB05KT P6SM SCT040
     FM220000 VRB04KT P6SM SKC=



000
FTUS44 KSHV 211100
TAFMLU
TAF
KMLU 211140Z 2112/2212 00000KT P6SM OVC045
     FM211500 03005KT P6SM SCT050
     FM220000 VRB03KT P6SM SKC=



000
FTUS44 KSHV 211100
TAFGGG
TAF
KGGG 211140Z 2112/2212 00000KT P6SM SCT035
     FM211300 13006KT P6SM SCT025
     FM211800 12006KT P6SM SCT040
     FM220000 11004KT P6SM SKC=



000
FTUS44 KSHV 211100
TAFSHV
TAF
KSHV 211140Z 2112/2212 00000KT P6SM BKN030
     FM211600 VRB05KT P6SM SCT040
     FM220000 VRB03KT P6SM SKC=



000
FTUS44 KSHV 211100
TAFTYR
TAF
KTYR 211140Z 2112/2212 09003KT P6SM BKN016
     FM211400 13006KT P6SM SCT025
     FM211800 12006KT P6SM SCT040
     FM220000 11004KT P6SM SKC=



000
FTUS44 KSHV 211000 AAC
TAFSHV
TAF AMD
KSHV 211045Z 2111/2206 00000KT P6SM BCFG FEW035
      TEMPO 2111/2113 4SM BR
     FM211300 VRB03KT P6SM SCT035
     FM211800 VRB05KT P6SM SCT040
     FM220000 VRB03KT P6SM SKC=



000
FTUS44 KSHV 211000 AAB
TAFELD
TAF AMD
KELD 211002Z 2110/2206 00000KT P6SM SKC
      TEMPO 2110/2113 3/4SM BR BKN001
     FM211300 VRB03KT P6SM BKN035
     FM211600 VRB05KT P6SM SCT040
     FM220000 VRB03KT P6SM SKC=



000
FTUS44 KSHV 211000 AAB
TAFTXK
TAF AMD
KTXK 211001Z 2110/2206 VRB03KT 6SM BR SCT035
      TEMPO 2110/2113 1/2SM FG VV001
     FM211300 VRB03KT P6SM BKN035
     FM211800 VRB05KT P6SM SCT040
     FM220000 VRB04KT P6SM SKC=



000
FTUS44 KSHV 210900 AAB
TAFSHV
TAF AMD
KSHV 210959Z 2110/2206 00000KT 6SM BCFG FEW002 SCT035
      TEMPO 2110/2113 2SM BR
     FM211300 VRB03KT P6SM SCT035
     FM211800 VRB05KT P6SM SCT040
     FM220000 VRB03KT P6SM SKC=



000
FTUS44 KSHV 210900 AAE
TAFMLU
TAF AMD
KMLU 210958Z 2110/2206 00000KT 6SM BR BKN040
      TEMPO 2110/2113 3SM BR
     FM211500 VRB03KT P6SM SCT045
     FM220000 VRB03KT P6SM SKC=



000
FTUS44 KSHV 210900 AAA
TAFLFK
TAF AMD
KLFK 210921Z 2109/2206 07003KT 4SM BR OVC016
      TEMPO 2109/2113 1SM BR
     FM211500 VRB04KT P6SM SCT020
     FM211600 VRB05KT P6SM SCT035
     FM220000 VRB03KT P6SM SKC=



000
FTUS44 KSHV 210900 AAA
TAFELD
TAF AMD
KELD 210919Z 2109/2206 00000KT P6SM SCT035
      TEMPO 2109/2113 3/4SM BR
     FM211400 VRB03KT P6SM BKN035
     FM211600 VRB05KT P6SM SCT040
     FM220000 VRB03KT P6SM SKC=



000
FTUS44 KSHV 210900 AAA
TAFSHV
TAF AMD
KSHV 210919Z 2109/2206 00000KT 6SM BCFG FEW002 SCT035
      TEMPO 2109/2113 2SM BR BKN002
     FM211300 VRB03KT P6SM SCT035
     FM211800 VRB05KT P6SM SCT040
     FM220000 VRB03KT P6SM SKC=



000
FTUS44 KSHV 210900 AAD
TAFMLU
TAF AMD
KMLU 210917Z 2109/2206 00000KT 3SM BR BKN035
      TEMPO 2109/2113 1/2SM FG
     FM211500 VRB03KT P6SM SCT035
     FM220000 VRB03KT P6SM SKC=



000
FTUS44 KSHV 210700 AAA
TAFTXK
TAF AMD
KTXK 210730Z 2108/2206 VRB03KT 6SM BR SKC
      TEMPO 2108/2112 1SM BR
     FM211400 VRB03KT P6SM SKC
     FM211800 VRB05KT P6SM SCT040
     FM220000 VRB04KT P6SM SKC=



000
FTUS44 KSHV 210700 AAC
TAFMLU
TAF AMD
KMLU 210730Z 2108/2206 00000KT 2SM BR FEW002 SCT040
      TEMPO 2108/2110 1/4SM FG VV002
     FM211000 00000KT 3/4SM BR FEW003
      TEMPO 2110/2113 1/4SM FG BKN005
     FM211300 VRB03KT 6SM BR SCT025
     FM211800 VRB04KT P6SM SCT040
     FM220000 VRB03KT P6SM SKC=



000
FTUS44 KSHV 210700 AAB
TAFMLU
TAF AMD
KMLU 210701Z 2107/2206 00000KT 1SM BR SKC
      TEMPO 2107/2110 1/4SM FG VV002
     FM211000 00000KT 3/4SM BR FEW003
      TEMPO 2110/2113 1/4SM FG BKN005
     FM211300 VRB03KT 6SM BR SCT025
     FM211800 VRB04KT P6SM SCT040
     FM220000 VRB03KT P6SM SKC=



000
FTUS44 KSHV 210600 AAA
TAFMLU
TAF AMD
KMLU 210605Z 2106/2206 00000KT 3SM BR SKC
      TEMPO 2106/2110 1/4SM FG VV002
     FM211000 00000KT 3/4SM BR FEW003
      TEMPO 2110/2113 1/4SM FG BKN005
     FM211300 VRB03KT 6SM BR SCT025
     FM211800 VRB04KT P6SM SCT040
     FM220000 VRB03KT P6SM SKC=



000
FTUS44 KSHV 210500
TAFLFK
TAF
KLFK 210539Z 2106/2206 VRB03KT P6SM SKC
      TEMPO 2108/2110 3SM BR
     FM211000 00000KT 3SM BR SCT005
      TEMPO 2110/2113 1/2SM FG BKN003
     FM211400 VRB04KT P6SM SCT015
     FM211600 VRB05KT P6SM SCT035
     FM220000 VRB03KT P6SM SKC=



000
FTUS44 KSHV 210500
TAFMLU
TAF
KMLU 210539Z 2106/2206 00000KT 3SM BR SKC
      TEMPO 2106/2110 1/2SM FG
     FM211000 00000KT 3/4SM BR FEW005
      TEMPO 2110/2113 1/4SM FG BKN005
     FM211300 VRB03KT 6SM BR SCT025
     FM211800 VRB04KT P6SM SCT040
     FM220000 VRB03KT P6SM SKC=



000
FTUS44 KSHV 210500
TAFGGG
TAF
KGGG 210539Z 2106/2206 11003KT P6SM SKC
      TEMPO 2109/2113 4SM BR
     FM211300 13006KT P6SM SCT025
     FM211800 12006KT P6SM SCT040
     FM220000 11004KT P6SM SKC=



000
FTUS44 KSHV 210500
TAFTYR
TAF
KTYR 210539Z 2106/2206 11003KT P6SM SKC
      TEMPO 2109/2113 5SM BR
     FM211400 13006KT P6SM SCT025
     FM211800 12006KT P6SM SCT040
     FM220000 11004KT P6SM SKC=



000
FTUS44 KSHV 210500
TAFELD
TAF
KELD 210539Z 2106/2206 00000KT 6SM BR SKC
      TEMPO 2106/2109 3SM BR
     FM210900 00000KT 3SM BR SKC
      TEMPO 2109/2113 3/4SM BR
     FM211400 VRB03KT P6SM SCT015
     FM211800 VRB05KT P6SM SCT040
     FM220000 VRB03KT P6SM SKC=



000
FTUS44 KSHV 210500
TAFTXK
TAF
KTXK 210539Z 2106/2206 VRB03KT P6SM SKC
      TEMPO 2108/2112 4SM BR
     FM211400 VRB03KT P6SM SKC
     FM211800 VRB05KT P6SM SCT040
     FM220000 VRB04KT P6SM SKC=



000
FTUS44 KSHV 210500
TAFSHV
TAF
KSHV 210539Z 2106/2206 VRB03KT P6SM SKC
      TEMPO 2109/2113 4SM BR SCT015
     FM211500 VRB03KT P6SM SCT025
     FM211800 VRB05KT P6SM SCT040
     FM220000 VRB03KT P6SM SKC=



000
FTUS44 KSHV 202300
TAFTYR
TAF
KTYR 202323Z 2100/2124 VRB04KT P6SM SCT045
     FM210600 VRB03KT P6SM SCT040
      TEMPO 2109/2113 5SM BR BKN030
     FM211300 VRB03KT P6SM SCT030
     FM211700 VRB05KT P6SM SCT040=



000
FTUS44 KSHV 202300
TAFGGG
TAF
KGGG 202323Z 2100/2124 VRB03KT P6SM SCT035
     FM210600 VRB03KT P6SM SCT040
      TEMPO 2109/2113 5SM BR BKN030
     FM211300 VRB03KT P6SM SCT030
     FM211700 VRB05KT P6SM SCT040=



000
FTUS44 KSHV 202300
TAFLFK
TAF
KLFK 202323Z 2100/2124 VRB03KT P6SM SCT040
     FM211000 00000KT 3SM BR SCT005
      TEMPO 2110/2113 1SM BR BKN003
     FM211400 VRB04KT P6SM SCT015
     FM211600 VRB05KT P6SM SCT035=



000
FTUS44 KSHV 202300
TAFSHV
TAF
KSHV 202323Z 2100/2124 VRB03KT P6SM SCT035
     FM210600 00000KT P6SM SKC
      TEMPO 2109/2113 5SM BR BKN025
     FM211300 VRB03KT P6SM SCT025
     FM211700 VRB05KT P6SM SCT040=



000
FTUS44 KSHV 202300
TAFTXK
TAF
KTXK 202323Z 2100/2124 VRB03KT P6SM SCT040
     FM210600 00000KT P6SM SCT040
      TEMPO 2109/2113 5SM BR BKN030
     FM211300 VRB03KT P6SM SCT030
     FM211700 VRB05KT P6SM SCT040=



000
FTUS44 KSHV 202300
TAFMLU
TAF
KMLU 202323Z 2100/2124 VRB03KT P6SM SCT045
     FM210600 00000KT P6SM SCT040
      TEMPO 2109/2113 3SM BR BKN030
     FM211300 VRB03KT P6SM SCT025
     FM211700 VRB05KT P6SM SCT040=



000
FTUS44 KSHV 202300
TAFELD
TAF
KELD 202323Z 2100/2124 00000KT P6SM SCT040
     FM210600 00000KT 5SM BR SCT040
      TEMPO 2109/2113 2SM BR BKN030
     FM211300 VRB03KT P6SM SCT025
     FM211700 VRB05KT P6SM SCT040=



000
FTUS44 KSHV 202000 AAB
TAFLFK
TAF AMD
KLFK 202005Z 2020/2118 VRB04KT P6SM SCT035
     FM210000 VRB02KT P6SM SCT250=



000
FTUS44 KSHV 201900 AAA
TAFSHV
TAF AMD
KSHV 201900Z 2019/2118 VRB05KT P6SM OVC025
     FM210000 VRB04KT P6SM SCT035=



000
FTUS44 KSHV 201800 AAA
TAFLFK
TAF AMD
KLFK 201858Z 2019/2118 VRB04KT P6SM BKN025
     FM202100 VRB04KT P6SM BKN035
     FM210000 VRB02KT P6SM SCT250=



000
FTUS44 KSHV 201700
TAFTXK
TAF
KTXK 201736Z 2018/2118 VRB03KT P6SM OVC025
     FM201900 VRB04KT P6SM SCT035=



000
FTUS44 KSHV 201700
TAFGGG
TAF
KGGG 201736Z 2018/2118 VRB04KT P6SM SCT035
     FM210000 14004KT P6SM SKC=



000
FTUS44 KSHV 201700
TAFMLU
TAF
KMLU 201736Z 2018/2118 VRB03KT P6SM OVC035
      TEMPO 2018/2019 BKN025
     FM202300 VRB03KT P6SM SCT250=



000
FTUS44 KSHV 201700
TAFSHV
TAF
KSHV 201736Z 2018/2118 VRB05KT P6SM OVC025
     FM201900 VRB04KT P6SM SCT035=



000
FTUS44 KSHV 201700
TAFELD
TAF
KELD 201736Z 2018/2118 VRB05KT P6SM OVC035
      TEMPO 2018/2019 BKN020
     FM202300 VRB03KT P6SM SCT250=



000
FTUS44 KSHV 201700
TAFTYR
TAF
KTYR 201736Z 2018/2118 VRB04KT P6SM SCT035
     FM210000 14004KT P6SM SKC=



000
FTUS44 KSHV 201700
TAFLFK
TAF
KLFK 201736Z 2018/2118 VRB04KT P6SM FEW015
      TEMPO 2018/2019 BKN015
     FM201900 VRB04KT P6SM SCT250=



000
FTUS44 KSHV 201600 AAE
TAFLFK
TAF AMD
KLFK 201700Z 2017/2112 VRB04KT P6SM FEW015
      TEMPO 2017/2019 BKN015
     FM201900 VRB04KT P6SM SCT250=



000
FTUS44 KSHV 201600 AAD
TAFLFK
TAF AMD
KLFK 201637Z 2017/2112 00000KT P6SM BKN006
      TEMPO 2017/2018 SCT006
     FM201800 VRB04KT P6SM BKN250=



000
FTUS44 KSHV 201600 AAA
TAFMLU
TAF AMD
KMLU 201602Z 2016/2112 00000KT P6SM OVC035
      TEMPO 2016/2018 BKN015
     FM201800 VRB03KT P6SM FEW050 SCT250=



000
FTUS44 KSHV 201500 AAB
TAFELD
TAF AMD
KELD 201522Z 2015/2112 00000KT P6SM OVC035
      TEMPO 2015/2017 BKN025
     FM201700 VRB05KT P6SM SCT035
     FM210000 VRB03KT P6SM FEW050 SCT250=



000
FTUS44 KSHV 201500 AAA
TAFTXK
TAF AMD
KTXK 201521Z 2015/2112 00000KT 5SM BR OVC015
     FM201700 VRB04KT P6SM BKN030
     FM201800 VRB03KT P6SM SCT035 BKN250=



000
FTUS44 KSHV 201500 AAB
TAFTYR
TAF AMD
KTYR 201511Z 2015/2112 VRB04KT P6SM SCT250=



000
FTUS44 KSHV 201500 AAB
TAFSHV
TAF AMD
KSHV 201510Z 2015/2112 00000KT P6SM BKN015
     FM201600 VRB04KT P6SM BKN025
     FM201800 VRB05KT P6SM SCT035
     FM210000 VRB03KT P6SM FEW050 BKN250=



000
FTUS44 KSHV 201500 AAC
TAFLFK
TAF AMD
KLFK 201509Z 2015/2112 00000KT P6SM BKN015
      TEMPO 2015/2018 6SM BR BKN004
     FM201800 VRB04KT P6SM BKN030 BKN250
     FM202100 VRB03KT P6SM SCT040 SCT250=



000
FTUS44 KSHV 201400 AAA
TAFTYR
TAF AMD
KTYR 201427Z 2014/2112 00000KT P6SM SCT007
      TEMPO 2014/2016 3SM BR BKN007
     FM201600 VRB05KT P6SM SCT035 BKN250=



000
FTUS44 KSHV 201300 AAA
TAFGGG
TAF AMD
KGGG 201326Z 2013/2112 18003KT P6SM OVC025
      TEMPO 2013/2015 P6SM BKN006
     FM201600 VRB05KT P6SM BKN035
     FM201800 VRB04KT P6SM SCT035 BKN250=



000
FTUS44 KSHV 201300 AAA
TAFSHV
TAF AMD
KSHV 201306Z 2013/2112 00000KT P6SM BKN013 OVC022
      TEMPO 2013/2015 VRB03KT 5SM BR BKN025
     FM201500 VRB04KT P6SM BKN025
     FM201700 VRB05KT P6SM SCT035
     FM210000 VRB03KT P6SM FEW050 BKN250=



000
FTUS44 KSHV 201300 AAB
TAFLFK
TAF AMD
KLFK 201303Z 2013/2112 10006KT 1SM BR OVC002
      TEMPO 2013/2014 3SM BR BKN007
     FM201400 00000KT 4SM BR BKN015
      TEMPO 2014/2018 6SM BR BKN025
     FM201800 VRB04KT P6SM BKN030 BKN250
     FM202100 VRB03KT P6SM SCT040 SCT250=



000
FTUS44 KSHV 201300 AAA
TAFELD
TAF AMD
KELD 201303Z 2013/2112 00000KT 6SM BR OVC024
      TEMPO 2013/2015 1SM -RA BR BKN004
     FM201500 VRB04KT P6SM BKN025
     FM201700 VRB05KT P6SM SCT035
     FM210000 VRB03KT P6SM FEW050 SCT250=



000
FTUS44 KSHV 201200 AAA
TAFLFK
TAF AMD
KLFK 201229Z 2012/2112 01003KT 1/4SM FG VV003
      TEMPO 2012/2014 1SM BR BKN010
     FM201400 00000KT 3SM BR BKN015
      TEMPO 2014/2018 6SM BR BKN025
     FM201800 VRB04KT P6SM BKN030 BKN250
     FM202100 VRB03KT P6SM SCT040 SCT250=



000
FTUS44 KSHV 201100 RRA
TAFTXK
TAF
KTXK 201143Z 2012/2112 00000KT 5SM BR OVC030
      TEMPO 2012/2016 VRB03KT 6SM BR BKN025
     FM201600 VRB04KT P6SM BKN030
     FM201800 VRB03KT P6SM SCT035 BKN250=



000
FTUS44 KSHV 201100 RRA
TAFMLU
TAF
KMLU 201143Z 2012/2112 00000KT P6SM OVC045
     FM201800 VRB03KT P6SM FEW050 SCT250=



000
FTUS44 KSHV 201100 RRA
TAFELD
TAF
KELD 201143Z 2012/2112 00000KT 6SM BR OVC024
      TEMPO 2012/2015 4SM BR
     FM201500 VRB04KT P6SM BKN030
     FM201700 VRB05KT P6SM SCT035
     FM210000 VRB03KT P6SM FEW050 SCT250=



000
FTUS44 KSHV 201100 RRA
TAFSHV
TAF
KSHV 201143Z 2012/2112 00000KT P6SM OVC024
      TEMPO 2012/2015 VRB03KT 5SM BR BKN035
     FM201500 VRB04KT P6SM BKN025
     FM201700 VRB05KT P6SM SCT035
     FM210000 VRB03KT P6SM FEW050 BKN250=



000
FTUS44 KSHV 201100 RRA
TAFLFK
TAF
KLFK 201143Z 2012/2112 36004KT 3SM BR OVC003
      TEMPO 2012/2014 1SM BR BKN010
     FM201400 00000KT 1SM BR BKN015
      TEMPO 2014/2018 6SM BR BKN025
     FM201800 VRB04KT P6SM BKN030 BKN250
     FM202100 VRB03KT P6SM SCT040 SCT250=



000
FTUS44 KSHV 201100 RRA
TAFTYR
TAF
KTYR 201143Z 2012/2112 00000KT 6SM BR SCT003 BKN027
      TEMPO 2012/2016 3SM BR BKN003 OVC027
     FM201600 VRB05KT P6SM BKN030
     FM202100 VRB04KT P6SM SCT035 BKN250=



000
FTUS44 KSHV 201100 RRA
TAFGGG
TAF
KGGG 201143Z 2012/2112 18003KT P6SM OVC022
      TEMPO 2012/2016 P6SM BKN030
     FM201600 VRB05KT P6SM BKN035
     FM201800 VRB04KT P6SM SCT035 BKN250=



000
FTUS44 KSHV 201000 AAD
TAFMLU
TAF AMD
KMLU 201030Z 2011/2106 00000KT P6SM OVC040
      TEMPO 2012/2015 VRB03KT P6SM BKN015
     FM201500 VRB04KT P6SM BKN025
     FM201700 VRB05KT P6SM BKN035
     FM210000 VRB03KT P6SM FEW040 SCT250=



000
FTUS44 KSHV 201000 AAD
TAFLFK
TAF AMD
KLFK 201008Z 2010/2106 00000KT 1/4SM FG VV002
      TEMPO 2010/2013 3SM BR BKN010
     FM201300 00000KT 1SM BR BKN015
      TEMPO 2013/2016 6SM BR BKN025
     FM201600 VRB04KT P6SM SCT030
     FM210000 VRB03KT P6SM SCT250=



000
FTUS44 KSHV 200900 AAC
TAFMLU
TAF AMD
KMLU 200906Z 2009/2106 00000KT P6SM OVC040
      TEMPO 2009/2012 00000KT 4SM BR BKN005
     FM201200 00000KT 4SM BR BKN009
      TEMPO 2012/2015 P6SM NSW BKN015
     FM201500 VRB04KT P6SM BKN025
     FM201700 VRB05KT P6SM BKN035
     FM210000 VRB03KT P6SM FEW040 SCT250=



000
FTUS44 KSHV 200800 AAB
TAFELD
TAF AMD
KELD 200835Z 2009/2106 00000KT 6SM BR OVC035
      TEMPO 2009/2012 3SM BR BKN005
     FM201200 00000KT 2SM BR BKN003
      TEMPO 2012/2015 6SM BR BKN015
     FM201500 VRB04KT P6SM BKN025
     FM201700 VRB05KT P6SM BKN035
     FM210000 VRB03KT P6SM FEW050 SCT250=



000
FTUS44 KSHV 200800 AAB
TAFMLU
TAF AMD
KMLU 200834Z 2009/2106 00000KT P6SM OVC030
      TEMPO 2009/2012 00000KT 4SM BR BKN005
     FM201200 00000KT 4SM BR BKN009
      TEMPO 2012/2015 P6SM NSW BKN015
     FM201500 VRB04KT P6SM BKN025
     FM201700 VRB05KT P6SM BKN035
     FM210000 VRB03KT P6SM FEW040 SCT250=



000
FTUS44 KSHV 200800 AAC
TAFLFK
TAF AMD
KLFK 200834Z 2009/2106 00000KT 3/4SM BR VV002
      TEMPO 2009/2012 3SM BR BKN010
     FM201200 00000KT 1SM BR BKN015
      TEMPO 2012/2016 6SM BR BKN025
     FM201600 VRB04KT P6SM SCT030
     FM210000 VRB03KT P6SM SCT250=



000
FTUS44 KSHV 200700 AAB
TAFLFK
TAF AMD
KLFK 200744Z 2008/2106 00000KT 1/2SM FG VV005
      TEMPO 2009/2012 3SM BR BKN010
     FM201200 00000KT 1SM BR BKN015
      TEMPO 2012/2016 6SM BR BKN025
     FM201600 VRB04KT P6SM SCT030
     FM210000 VRB03KT P6SM SCT250=



000
FTUS44 KSHV 200700 AAA
TAFELD
TAF AMD
KELD 200722Z 2007/2106 00000KT 6SM BR OVC030
      TEMPO 2008/2012 3SM BR BKN005
     FM201200 00000KT 2SM BR BKN003
      TEMPO 2012/2015 6SM BR BKN015
     FM201500 VRB04KT P6SM BKN025
     FM201700 VRB05KT P6SM BKN035
     FM210000 VRB03KT P6SM FEW050 SCT250=



000
FTUS44 KSHV 200700 AAA
TAFLFK
TAF AMD
KLFK 200717Z 2007/2106 00000KT 6SM BR SKC
      TEMPO 2007/2009 2SM BR SCT025
     FM200900 00000KT 2SM BR BKN025
      TEMPO 2009/2012 1SM BR BKN005
     FM201200 00000KT 1SM BR BKN005
      TEMPO 2012/2014 P6SM NSW SCT015
     FM201400 VRB04KT P6SM SCT030
     FM210000 VRB03KT P6SM SCT250=



000
FTUS44 KSHV 200700 AAA
TAFTXK
TAF AMD
KTXK 200716Z 2007/2106 00000KT P6SM BKN028
      TEMPO 2008/2012 5SM BR SCT025
     FM201200 00000KT 5SM BR BKN025
      TEMPO 2012/2016 6SM BR BKN025
     FM201600 VRB04KT P6SM BKN030
     FM210000 VRB03KT P6SM SCT250=



000
FTUS44 KSHV 200700 AAA
TAFMLU
TAF AMD
KMLU 200715Z 2007/2106 00000KT P6SM OVC029
      TEMPO 2008/2012 00000KT 4SM BR BKN005
     FM201200 00000KT 4SM BR BKN009
      TEMPO 2012/2015 P6SM NSW BKN015
     FM201500 VRB04KT P6SM BKN025
     FM201700 VRB05KT P6SM BKN035
     FM210000 VRB03KT P6SM FEW040 SCT250=



000
FTUS44 KSHV 200500 RRA
TAFSHV
TAF
KSHV 200545Z 2006/2106 VRB03KT P6SM OVC026
      TEMPO 2008/2012 3SM BR SCT030
     FM201200 00000KT 3SM BR SCT025
      TEMPO 2012/2015 5SM BR BKN025
     FM201500 VRB04KT P6SM BKN025
     FM201800 VRB05KT P6SM BKN035
     FM210000 VRB03KT P6SM FEW050 BKN250=



000
FTUS44 KSHV 200500 RRA
TAFMLU
TAF
KMLU 200545Z 2006/2106 VRB03KT P6SM SCT035
      TEMPO 2008/2012 00000KT 1SM BR BKN005
     FM201200 00000KT 1SM BR BKN003
      TEMPO 2012/2015 P6SM NSW BKN015
     FM201500 VRB04KT P6SM BKN025
     FM201700 VRB05KT P6SM BKN035
     FM210000 VRB03KT P6SM FEW040 SCT250=



000
FTUS44 KSHV 200500 RRA
TAFTXK
TAF
KTXK 200545Z 2006/2106 00000KT P6SM SKC
      TEMPO 2008/2012 1SM BR SCT025
     FM201200 00000KT 1SM BR BKN025
      TEMPO 2012/2016 6SM BR BKN025
     FM201600 VRB04KT P6SM BKN030
     FM210000 VRB03KT P6SM SCT250=



000
FTUS44 KSHV 200500 RRA
TAFELD
TAF
KELD 200545Z 2006/2106 00000KT 6SM BR OVC035
      TEMPO 2008/2012 3SM BR BKN005
     FM201200 00000KT 2SM BR BKN003
      TEMPO 2012/2015 6SM BR BKN015
     FM201500 VRB04KT P6SM BKN025
     FM201700 VRB05KT P6SM BKN035
     FM210000 VRB03KT P6SM FEW050 SCT250=



000
FTUS44 KSHV 200500 RRA
TAFTYR
TAF
KTYR 200545Z 2006/2106 13003KT P6SM BKN029
      TEMPO 2008/2012 3SM BR SCT030
     FM201200 00000KT 5SM BR BKN020
      TEMPO 2012/2016 P6SM NSW BKN025
     FM201600 VRB05KT P6SM BKN035
     FM210000 VRB04KT P6SM SCT250=



000
FTUS44 KSHV 200500 RRA
TAFGGG
TAF
KGGG 200545Z 2006/2106 00000KT P6SM FEW009 OVC030
      TEMPO 2008/2012 5SM BR SCT025
     FM201200 00000KT 5SM BR BKN025
      TEMPO 2012/2016 P6SM NSW BKN030
     FM201600 VRB05KT P6SM BKN035
     FM210000 VRB04KT P6SM SCT250=



000
FTUS44 KSHV 200500 RRA
TAFLFK
TAF
KLFK 200545Z 2006/2106 04003KT P6SM SKC
      TEMPO 2006/2009 2SM BR SCT025
     FM200900 00000KT 2SM BR BKN025
      TEMPO 2009/2012 1SM BR BKN005
     FM201200 00000KT 1SM BR BKN005
      TEMPO 2012/2014 P6SM NSW SCT015
     FM201400 VRB04KT P6SM SCT030
     FM210000 VRB03KT P6SM SCT250=



000
FTUS44 KSHV 200100 AAA
TAFLFK
TAF AMD
KLFK 200142Z 2002/2024 VRB03KT P6SM BKN035
      TEMPO 2004/2008 5SM BR SCT035
     FM200800 00000KT 5SM BR BKN030
      TEMPO 2008/2012 2SM BR BKN015
     FM201200 VRB03KT 5SM BR BKN015
      TEMPO 2012/2015 P6SM NSW
     FM201500 VRB04KT P6SM BKN020
     FM201800 VRB05KT P6SM BKN030=



000
FTUS44 KSHV 200100 AAA
TAFTXK
TAF AMD
KTXK 200130Z 2002/2024 VRB03KT P6SM BKN035
      TEMPO 2003/2006 5SM BR SCT035
     FM200600 VRB03KT 5SM BR SCT035
      TEMPO 2008/2012 5SM BR BKN025
     FM201200 00000KT 5SM BR BKN015
      TEMPO 2012/2015 P6SM NSW BKN025
     FM201500 VRB04KT P6SM BKN025
     FM201800 VRB05KT P6SM SCT030=



000
FTUS44 KSHV 200100 AAA
TAFMLU
TAF AMD
KMLU 200127Z 2001/2024 00000KT P6SM OVC025
      TEMPO 2008/2012 5SM BR OVC015
     FM201200 00000KT 5SM BR OVC015
      TEMPO 2012/2015 P6SM NSW OVC025
     FM201500 VRB04KT P6SM OVC025
     FM201800 VRB05KT P6SM BKN030=



000
FTUS44 KSHV 192300
TAFMLU
TAF
KMLU 192321Z 2000/2024 VRB03KT P6SM OVC015
      TEMPO 2008/2012 5SM BR OVC008
     FM201200 00000KT 5SM BR OVC008
      TEMPO 2012/2015 P6SM NSW OVC015
     FM201500 VRB04KT P6SM OVC015
     FM201800 VRB05KT P6SM BKN030=



000
FTUS44 KSHV 192300
TAFTXK
TAF
KTXK 192321Z 2000/2024 VRB03KT P6SM OVC030
      TEMPO 2008/2012 5SM BR OVC015
     FM201200 00000KT 5SM BR OVC015
      TEMPO 2012/2015 P6SM NSW OVC025
     FM201500 VRB04KT P6SM OVC025
     FM201800 VRB05KT P6SM SCT030=



000
FTUS44 KSHV 192300
TAFLFK
TAF
KLFK 192321Z 2000/2024 VRB03KT P6SM OVC025
      TEMPO 2004/2008 5SM BR OVC015
     FM200800 00000KT 6SM BR OVC015
      TEMPO 2008/2012 3SM BR OVC008
     FM201200 VRB03KT 5SM BR OVC008
      TEMPO 2012/2015 P6SM NSW OVC015
     FM201500 VRB04KT P6SM OVC020
     FM201800 VRB05KT P6SM BKN030=



000
FTUS44 KSHV 192300
TAFGGG
TAF
KGGG 192321Z 2000/2024 VRB03KT P6SM OVC025
      TEMPO 2000/2004 OVC015
     FM200400 VRB03KT P6SM OVC015
      TEMPO 2008/2012 5SM BR OVC008
     FM201200 00000KT 5SM BR OVC015
      TEMPO 2012/2015 P6SM NSW OVC025
     FM201500 VRB04KT P6SM OVC025
     FM201800 VRB05KT P6SM SCT030=



000
FTUS44 KSHV 192300
TAFSHV
TAF
KSHV 192321Z 2000/2024 VRB03KT P6SM OVC015
      TEMPO 2008/2012 5SM BR OVC008
     FM201200 00000KT 5SM BR OVC008
      TEMPO 2012/2015 P6SM NSW OVC015
     FM201500 VRB04KT P6SM OVC015
     FM201800 VRB05KT P6SM SCT030=



000
FTUS44 KSHV 192300
TAFELD
TAF
KELD 192321Z 2000/2024 VRB03KT P6SM OVC025
      TEMPO 2000/2004 OVC015
     FM200400 VRB03KT P6SM OVC015
      TEMPO 2008/2012 4SM BR OVC008
     FM201200 00000KT 4SM BR OVC015
      TEMPO 2012/2015 P6SM NSW OVC008
     FM201500 VRB04KT P6SM OVC015
     FM201800 VRB05KT P6SM BKN030=



000
FTUS44 KSHV 192300
TAFTYR
TAF
KTYR 192321Z 2000/2024 VRB03KT P6SM OVC030
      TEMPO 2008/2012 5SM BR OVC015
     FM201200 00000KT 5SM BR OVC015
      TEMPO 2012/2015 P6SM NSW OVC025
     FM201500 VRB04KT P6SM OVC025
     FM201800 VRB05KT P6SM SCT030=



000
FTUS44 KSHV 192000 AAB
TAFLFK
TAF AMD
KLFK 192011Z 1920/2018 VRB05KT P6SM OVC025
     FM192300 VRB05KT P6SM OVC035
     FM200300 00000KT P6SM SCT250=



000
FTUS44 KSHV 192000 AAA
TAFMLU
TAF AMD
KMLU 192011Z 1920/2018 VRB03KT P6SM OVC015
     FM192200 02005KT P6SM BKN025=



000
FTUS44 KSHV 192000 AAB
TAFELD
TAF AMD
KELD 192010Z 1920/2018 VRB04KT P6SM OVC015
     FM192100 VRB04KT P6SM BKN025=



000
FTUS44 KSHV 192000 AAA
TAFSHV
TAF AMD
KSHV 192010Z 1920/2018 VRB05KT P6SM OVC015
     FM192200 05005KT P6SM BKN025=



000
FTUS44 KSHV 192000 AAA
TAFTXK
TAF AMD
KTXK 192009Z 1920/2018 VRB04KT P6SM BKN025
     FM192300 VRB04KT P6SM BKN035
     FM200300 VRB02KT P6SM BKN250=



000
FTUS44 KSHV 192000 AAB
TAFGGG
TAF AMD
KGGG 192009Z 1920/2018 08006KT P6SM OVC025
     FM192300 VRB04KT P6SM BKN035
     FM200300 VRB02KT P6SM SCT250=



000
FTUS44 KSHV 192000 AAA
TAFTYR
TAF AMD
KTYR 192008Z 1920/2018 VRB04KT P6SM OVC025
     FM192300 VRB04KT P6SM BKN035
     FM200300 VRB02KT P6SM SCT250=



000
FTUS44 KSHV 191900 AAA
TAFGGG
TAF AMD
KGGG 191900Z 1919/2018 08006KT P6SM OVC025
     FM192000 VRB04KT P6SM BKN035
     FM200000 VRB02KT P6SM SCT250=



000
FTUS44 KSHV 191900 AAA
TAFLFK
TAF AMD
KLFK 191900Z 1919/2018 VRB05KT P6SM OVC025
     FM192100 VRB05KT P6SM BKN035
     FM200000 00000KT P6SM SCT250=



000
FTUS44 KSHV 191900 AAA
TAFELD
TAF AMD
KELD 191900Z 1919/2018 VRB04KT P6SM OVC025
     FM192100 VRB04KT P6SM SCT035
     FM200000 00000KT P6SM SCT250=



000
FTUS44 KSHV 191700
TAFMLU
TAF
KMLU 191728Z 1918/2018 VRB03KT P6SM OVC015
     FM192100 02005KT P6SM BKN035
     FM200000 00000KT P6SM SCT250=



000
FTUS44 KSHV 191700
TAFSHV
TAF
KSHV 191728Z 1918/2018 VRB05KT P6SM OVC015
     FM192100 05005KT P6SM BKN035
     FM200000 VRB02KT P6SM SCT250=



000
FTUS44 KSHV 191700
TAFTXK
TAF
KTXK 191728Z 1918/2018 VRB04KT P6SM BKN025
     FM192000 VRB04KT P6SM BKN035
     FM200000 VRB02KT P6SM BKN250=



000
FTUS44 KSHV 191700
TAFTYR
TAF
KTYR 191728Z 1918/2018 VRB04KT P6SM BKN030
     FM192000 VRB04KT P6SM BKN035
     FM200000 VRB02KT P6SM SCT250=



000
FTUS44 KSHV 191700
TAFELD
TAF
KELD 191728Z 1918/2018 VRB04KT P6SM OVC015
     FM192100 VRB04KT P6SM SCT035
     FM200000 00000KT P6SM SCT250=



000
FTUS44 KSHV 191700
TAFGGG
TAF
KGGG 191728Z 1918/2018 08006KT P6SM BKN015
     FM192000 VRB04KT P6SM BKN035
     FM200000 VRB02KT P6SM SCT250=



000
FTUS44 KSHV 191700
TAFLFK
TAF
KLFK 191728Z 1918/2018 VRB05KT P6SM OVC015
     FM192100 VRB05KT P6SM BKN035
     FM200000 00000KT P6SM SCT250=



000
FTUS44 KSHV 191500 AAB
TAFGGG
TAF AMD
KGGG 191501Z 1915/2012 06006KT P6SM OVC015
     FM191800 08006KT P6SM BKN030
     FM192000 09005KT P6SM SCT035=



000
FTUS44 KSHV 191500 AAB
TAFLFK
TAF AMD
KLFK 191501Z 1915/2012 VRB04KT P6SM OVC015
     FM191800 VRB05KT P6SM OVC035
     FM192100 VRB05KT P6SM BKN050=



000
FTUS44 KSHV 191500 AAB
TAFTXK
TAF AMD
KTXK 191500Z 1915/2012 03004KT P6SM OVC015
     FM191800 04004KT P6SM BKN030
     FM192000 05005KT P6SM SCT035=



000
FTUS44 KSHV 191300 AAA
TAFGGG
TAF AMD
KGGG 191301Z 1913/2012 00000KT P6SM OVC017
     FM191500 06006KT P6SM OVC025
     FM191800 08006KT P6SM BKN030
     FM192000 09005KT P6SM SCT035=



000
FTUS44 KSHV 191300 AAA
TAFLFK
TAF AMD
KLFK 191300Z 1913/2012 VRB04KT P6SM OVC023
     FM191800 VRB05KT P6SM OVC035
     FM192100 VRB05KT P6SM BKN050=



000
FTUS44 KSHV 191200 AAA
TAFTYR
TAF AMD
KTYR 191257Z 1913/2012 00000KT P6SM OVC022
     FM191500 VRB04KT P6SM OVC025
     FM191800 08005KT P6SM BKN030
     FM192000 09005KT P6SM SCT035=



000
FTUS44 KSHV 191200 CCA
TAFTXK
TAF COR
KTXK 191254Z 1913/2012 00000KT 5SM BR SCT018 OVC030
      TEMPO 1913/1915 P6SM NSW OVC018
     FM191500 03004KT P6SM OVC025
     FM191800 04004KT P6SM BKN030
     FM192000 05005KT P6SM SCT035=



000
FTUS44 KSHV 191200 AAA
TAFTXK
TAF AMD
KTXK 191253Z 1913/2012 00000KT 5SM BR SCT018 OVC030
      TEMPO 1913/1914 P6SM NSW OVC018
     FM191400 03004KT P6SM OVC015
     FM191800 04004KT P6SM BKN030
     FM192000 05005KT P6SM SCT035=



000
FTUS44 KSHV 191100 RRA
TAFTXK
TAF
KTXK 191141Z 1912/2012 00000KT 5SM BR BKN020 OVC028
      TEMPO 1912/1914 P6SM NSW OVC008
     FM191400 03004KT P6SM OVC015
     FM191800 04004KT P6SM BKN030
     FM192000 05005KT P6SM SCT035=



000
FTUS44 KSHV 191100 RRA
TAFGGG
TAF
KGGG 191141Z 1912/2012 09003KT P6SM FEW003 OVC016
      TEMPO 1912/1914 P6SM BKN003
     FM191400 06006KT P6SM OVC015
     FM191800 08006KT P6SM BKN030
     FM192000 09005KT P6SM SCT035=



000
FTUS44 KSHV 191100 RRA
TAFLFK
TAF
KLFK 191141Z 1912/2012 35004KT P6SM OVC023
      TEMPO 1912/1914 1SM BR OVC003
     FM191400 04004KT P6SM OVC005
     FM191600 VRB05KT P6SM OVC008
     FM191800 VRB05KT P6SM OVC015
     FM192100 VRB05KT P6SM BKN030=



000
FTUS44 KSHV 191100 RRA
TAFTYR
TAF
KTYR 191141Z 1912/2012 00000KT P6SM OVC022
      TEMPO 1912/1914 P6SM BKN007
     FM191400 VRB04KT P6SM OVC015
     FM191800 08005KT P6SM BKN030
     FM192000 09005KT P6SM SCT035=



000
FTUS44 KSHV 191100 RRA
TAFSHV
TAF
KSHV 191141Z 1912/2012 03004KT 5SM -DZ BR FEW008 OVC012
      TEMPO 1913/1915 P6SM NSW BKN008
     FM191500 VRB05KT P6SM OVC015
     FM191800 VRB05KT P6SM BKN035
     FM192100 05005KT P6SM FEW035 SCT250=



000
FTUS44 KSHV 191100 RRA
TAFELD
TAF
KELD 191141Z 1912/2012 33004KT P6SM FEW003 OVC016
      TEMPO 1912/1915 P6SM OVC003
     FM191500 VRB04KT P6SM OVC010
     FM191800 VRB04KT P6SM BKN020
     FM192100 VRB04KT P6SM SCT035=



000
FTUS44 KSHV 191100 RRA
TAFMLU
TAF
KMLU 191141Z 1912/2012 34003KT P6SM FEW010 OVC019
      TEMPO 1913/1915 P6SM BKN010
     FM191500 01005KT P6SM OVC015
     FM191800 02005KT P6SM OVC025
     FM192100 02005KT P6SM BKN035
     FM200000 04002KT P6SM SCT250=



    US Dept of Commerce
    National Oceanic and Atmospheric Administration
    National Weather Service
    1325 East West Highway
    Silver Spring, MD 20910
    Page Author: NWS Internet Services Team
Disclaimer
Information Quality
Credits
Glossary
Privacy Policy
Freedom of Information Act (FOIA)
About Us
Career Opportunities